createdAt,value
2018-12-13T00:01:01.586Z,5.12
2018-12-13T00:03:30.020Z,5.80
2018-12-13T00:05:58.589Z,5.40
2018-12-13T00:08:27.018Z,5.53
2018-12-13T00:10:55.496Z,5.70
2018-12-13T00:13:24.017Z,5.30
2018-12-13T00:15:53.325Z,5.25
2018-12-13T00:18:21.754Z,5.70
2018-12-13T00:20:50.227Z,5.33
2018-12-13T00:23:18.650Z,5.50
2018-12-13T00:25:47.102Z,6.00
2018-12-13T00:28:15.535Z,5.70
2018-12-13T00:30:44.023Z,5.00
2018-12-13T00:33:12.446Z,4.75
2018-12-13T00:35:40.943Z,5.85
2018-12-13T00:38:09.374Z,5.92
2018-12-13T00:40:37.867Z,5.72
2018-12-13T00:43:06.313Z,4.40
2018-12-13T00:45:34.759Z,5.55
2018-12-13T00:48:03.186Z,4.87
2018-12-13T00:50:31.672Z,6.10
2018-12-13T00:53:00.106Z,6.55
2018-12-13T00:55:28.549Z,6.43
2018-12-13T00:57:56.982Z,5.92
2018-12-13T01:00:25.429Z,6.30
2018-12-13T01:02:53.878Z,7.73
2018-12-13T01:05:22.301Z,5.83
2018-12-13T01:07:50.806Z,6.37
2018-12-13T01:10:19.256Z,6.17
2018-12-13T01:12:47.703Z,5.33
2018-12-13T01:15:16.130Z,7.60
2018-12-13T01:17:44.594Z,6.72
2018-12-13T01:20:13.142Z,7.60
2018-12-13T01:22:41.585Z,6.45
2018-12-13T01:25:10.031Z,6.25
2018-12-13T01:27:38.488Z,7.10
2018-12-13T01:30:07.061Z,6.40
2018-12-13T01:32:35.506Z,7.50
2018-12-13T01:35:04.233Z,7.22
2018-12-13T01:37:32.681Z,7.23
2018-12-13T01:40:01.306Z,7.37
2018-12-13T01:42:29.763Z,8.83
2018-12-13T01:44:58.206Z,7.62
2018-12-13T01:47:26.658Z,8.30
2018-12-13T01:49:55.356Z,7.67
2018-12-13T01:52:23.797Z,7.85
2018-12-13T01:54:52.238Z,7.42
2018-12-13T01:57:20.686Z,8.13
2018-12-13T01:59:49.126Z,7.90
2018-12-13T02:02:17.579Z,8.08
2018-12-13T02:04:46.013Z,7.33
2018-12-13T02:07:14.470Z,7.90
2018-12-13T02:09:42.904Z,7.35
2018-12-13T02:12:11.358Z,7.97
2018-12-13T02:14:39.822Z,9.45
2018-12-13T02:17:08.262Z,7.70
2018-12-13T02:19:36.834Z,8.00
2018-12-13T02:22:05.282Z,8.40
2018-12-13T02:24:33.744Z,8.55
2018-12-13T02:27:02.176Z,7.80
2018-12-13T02:29:30.758Z,8.63
2018-12-13T02:31:59.193Z,8.63
2018-12-13T02:34:27.661Z,8.30
2018-12-13T02:36:56.090Z,7.80
2018-12-13T02:39:24.573Z,8.08
2018-12-13T02:41:53.080Z,7.72
2018-12-13T02:44:21.551Z,8.10
2018-12-13T02:46:49.980Z,8.40
2018-12-13T02:49:18.444Z,8.63
2018-12-13T02:51:46.902Z,8.68
2018-12-13T02:54:15.375Z,8.58
2018-12-13T02:56:43.797Z,8.78
2018-12-13T02:59:12.289Z,7.58
2018-12-13T03:01:40.778Z,7.05
2018-12-13T03:04:09.249Z,9.63
2018-12-13T03:06:37.679Z,8.15
2018-12-13T03:09:07.488Z,8.13
2018-12-13T03:11:35.929Z,8.03
2018-12-13T03:14:04.430Z,8.68
2018-12-13T03:16:32.878Z,8.15
2018-12-13T03:19:01.362Z,7.35
2018-12-13T03:21:29.807Z,8.95
2018-12-13T03:23:58.238Z,8.13
2018-12-13T03:26:26.758Z,7.83
2018-12-13T03:28:55.244Z,9.68
2018-12-13T03:31:23.695Z,8.10
2018-12-13T03:33:52.135Z,8.85
2018-12-13T03:36:20.605Z,8.68
2018-12-13T03:38:49.071Z,8.75
2018-12-13T03:41:17.522Z,8.25
2018-12-13T03:43:45.958Z,10.35
2018-12-13T03:46:14.402Z,8.18
2018-12-13T03:48:42.831Z,8.03
2018-12-13T03:51:11.304Z,8.85
2018-12-13T03:53:39.755Z,9.70
2018-12-13T03:56:08.202Z,9.58
2018-12-13T03:58:36.635Z,8.48
2018-12-13T04:01:05.081Z,9.15
2018-12-13T04:03:33.510Z,9.93
2018-12-13T04:06:02.022Z,9.55
2018-12-13T04:08:30.503Z,8.68
2018-12-13T04:10:58.953Z,7.80
2018-12-13T04:13:27.382Z,9.38
2018-12-13T04:15:55.903Z,9.15
2018-12-13T04:18:24.380Z,9.30
2018-12-13T04:20:52.830Z,7.90
2018-12-13T04:23:21.266Z,8.43
2018-12-13T04:25:49.715Z,7.87
2018-12-13T04:28:18.151Z,9.40
2018-12-13T04:30:46.618Z,8.50
2018-12-13T04:33:15.050Z,7.85
2018-12-13T04:35:43.518Z,8.28
2018-12-13T04:38:11.960Z,9.48
2018-12-13T04:40:40.466Z,9.58
2018-12-13T04:43:08.894Z,8.60
2018-12-13T04:45:37.457Z,9.08
2018-12-13T04:48:05.899Z,9.13
2018-12-13T04:50:34.348Z,9.28
2018-12-13T04:53:02.782Z,9.95
2018-12-13T04:55:31.202Z,9.38
2018-12-13T04:57:59.694Z,7.97
2018-12-13T05:00:28.114Z,9.93
2018-12-13T05:02:56.541Z,7.70
2018-12-13T05:05:25.079Z,8.70
2018-12-13T05:07:53.519Z,8.38
2018-12-13T05:10:33.373Z,8.73
2018-12-13T05:13:01.814Z,9.53
2018-12-13T05:15:30.230Z,9.25
2018-12-13T05:17:58.671Z,9.70
2018-12-13T05:20:27.090Z,9.25
2018-12-13T05:22:55.526Z,8.20
2018-12-13T05:25:23.941Z,9.35
2018-12-13T05:27:52.494Z,9.38
2018-12-13T05:30:20.926Z,8.83
2018-12-13T05:32:49.371Z,8.90
2018-12-13T05:35:17.787Z,9.30
2018-12-13T05:37:48.370Z,9.68
2018-12-13T05:40:16.664Z,9.43
2018-12-13T05:42:45.139Z,9.23
2018-12-13T05:45:13.677Z,7.95
2018-12-13T05:47:42.118Z,13.18
2018-12-13T05:50:10.572Z,9.50
2018-12-13T05:52:39.026Z,10.63
2018-12-13T05:55:08.584Z,9.73
2018-12-13T05:57:37.215Z,10.38
2018-12-13T06:00:06.430Z,9.75
2018-12-13T06:02:34.862Z,10.13
2018-12-13T06:05:03.530Z,9.13
2018-12-13T06:07:32.015Z,10.23
2018-12-13T06:10:00.471Z,10.05
2018-12-13T06:12:28.908Z,8.83
2018-12-13T06:14:57.478Z,10.45
2018-12-13T06:17:25.903Z,9.65
2018-12-13T06:19:54.353Z,9.65
2018-12-13T06:22:22.785Z,10.40
2018-12-13T06:24:51.376Z,11.03
2018-12-13T06:27:19.902Z,10.80
2018-12-13T06:29:48.965Z,10.68
2018-12-13T06:32:17.579Z,9.48
2018-12-13T06:34:46.055Z,10.58
2018-12-13T06:37:14.511Z,11.08
2018-12-13T06:39:42.976Z,10.10
2018-12-13T06:42:11.534Z,10.70
2018-12-13T06:44:40.015Z,9.33
2018-12-13T06:47:08.601Z,10.13
2018-12-13T06:49:37.049Z,9.83
2018-12-13T06:52:05.500Z,9.05
2018-12-13T06:54:33.978Z,10.35
2018-12-13T06:57:02.427Z,11.10
2018-12-13T06:59:30.916Z,9.45
2018-12-13T07:01:59.358Z,9.55
2018-12-13T07:04:27.805Z,9.63
2018-12-13T07:06:56.254Z,9.73
2018-12-13T07:09:24.742Z,10.28
2018-12-13T07:11:53.193Z,9.50
2018-12-13T07:14:21.637Z,9.38
2018-12-13T07:16:50.099Z,9.25
2018-12-13T07:19:18.530Z,9.65
2018-12-13T07:21:46.986Z,11.08
2018-12-13T07:24:15.414Z,9.25
2018-12-13T07:26:43.902Z,10.35
2018-12-13T07:29:12.330Z,9.43
2018-12-13T07:31:40.782Z,9.00
2018-12-13T07:34:09.210Z,9.13
2018-12-13T07:36:37.663Z,9.85
2018-12-13T07:39:09.062Z,9.35
2018-12-13T07:41:37.542Z,9.33
2018-12-13T07:44:05.974Z,9.85
2018-12-13T07:46:34.421Z,10.10
2018-12-13T07:49:02.858Z,10.35
2018-12-13T07:51:31.330Z,9.43
2018-12-13T07:53:59.783Z,11.75
2018-12-13T07:56:29.297Z,9.75
2018-12-13T07:58:57.901Z,9.30
2018-12-13T08:01:26.349Z,9.70
2018-12-13T08:03:54.778Z,8.65
2018-12-13T08:06:23.237Z,9.63
2018-12-13T08:08:51.670Z,10.65
2018-12-13T08:11:20.118Z,10.08
2018-12-13T08:13:48.566Z,10.25
2018-12-13T08:16:16.998Z,10.70
2018-12-13T08:18:45.455Z,11.10
2018-12-13T08:21:13.894Z,10.45
2018-12-13T08:23:42.352Z,9.63
2018-12-13T08:26:10.784Z,10.37
2018-12-13T08:28:39.229Z,11.47
2018-12-13T08:31:07.658Z,8.90
2018-12-13T08:33:36.106Z,10.23
2018-12-13T08:36:04.540Z,8.80
2018-12-13T08:38:32.982Z,9.97
2018-12-13T08:41:01.403Z,9.90
2018-12-13T08:43:29.852Z,9.97
2018-12-13T08:45:58.457Z,9.77
2018-12-13T08:48:26.898Z,9.47
2018-12-13T08:50:55.371Z,10.80
2018-12-13T08:53:23.851Z,10.40
2018-12-13T08:55:52.296Z,10.30
2018-12-13T08:58:20.744Z,11.10
2018-12-13T09:00:49.178Z,10.00
2018-12-13T09:03:17.618Z,9.87
2018-12-13T09:05:46.033Z,9.70
2018-12-13T09:08:14.465Z,9.40
2018-12-13T09:10:42.881Z,8.90
2018-12-13T09:13:11.323Z,10.67
2018-12-13T09:15:39.763Z,8.73
2018-12-13T09:18:08.195Z,9.37
2018-12-13T09:20:36.630Z,11.40
2018-12-13T09:23:05.075Z,9.77
2018-12-13T09:25:33.482Z,9.37
2018-12-13T09:28:01.902Z,11.07
2018-12-13T09:30:30.335Z,9.70
2018-12-13T09:32:58.752Z,9.63
2018-12-13T09:35:27.183Z,9.73
2018-12-13T09:37:55.647Z,9.50
2018-12-13T09:40:24.266Z,10.20
2018-12-13T09:42:52.686Z,10.13
2018-12-13T09:45:21.158Z,9.63
2018-12-13T09:47:49.573Z,9.40
2018-12-13T09:50:18.037Z,9.63
2018-12-13T09:52:46.477Z,10.67
2018-12-13T09:55:14.954Z,10.30
2018-12-13T09:57:43.386Z,9.57
2018-12-13T10:00:11.950Z,11.37
2018-12-13T10:02:40.378Z,9.37
2018-12-13T10:05:08.902Z,9.73
2018-12-13T10:07:37.324Z,8.93
2018-12-13T10:10:05.958Z,11.13
2018-12-13T10:12:34.390Z,10.10
2018-12-13T10:15:02.845Z,9.50
2018-12-13T10:17:31.283Z,8.93
2018-12-13T10:19:59.746Z,10.65
2018-12-13T10:22:28.751Z,10.53
2018-12-13T10:24:57.390Z,10.80
2018-12-13T10:27:25.843Z,9.78
2018-12-13T10:29:54.290Z,9.63
2018-12-13T10:32:22.758Z,10.53
2018-12-13T10:34:51.233Z,10.05
2018-12-13T10:37:19.683Z,9.00
2018-12-13T10:39:48.137Z,8.70
2018-12-13T10:42:16.590Z,8.80
2018-12-13T10:44:45.031Z,10.10
2018-12-13T10:47:13.482Z,8.80
2018-12-13T10:49:41.943Z,9.07
2018-12-13T10:52:10.414Z,9.53
2018-12-13T10:54:38.864Z,9.70
2018-12-13T10:57:07.355Z,8.73
2018-12-13T10:59:35.805Z,9.93
2018-12-13T11:02:08.600Z,8.30
2018-12-13T11:04:37.063Z,8.77
2018-12-13T11:07:05.517Z,9.33
2018-12-13T11:09:33.971Z,9.53
2018-12-13T11:12:02.426Z,8.60
2018-12-13T11:14:30.878Z,9.55
2018-12-13T11:16:59.343Z,8.78
2018-12-13T11:19:27.797Z,7.65
2018-12-13T11:21:56.274Z,8.50
2018-12-13T11:24:24.713Z,10.18
2018-12-13T11:26:54.506Z,9.15
2018-12-13T11:30:26.335Z,8.80
2018-12-13T11:32:54.789Z,8.53
2018-12-13T11:35:23.233Z,8.63
2018-12-13T11:37:51.685Z,9.70
2018-12-13T11:40:20.122Z,8.58
2018-12-13T11:42:48.575Z,9.30
2018-12-13T11:45:17.070Z,8.98
2018-12-13T11:47:45.514Z,9.20
2018-12-13T11:50:13.970Z,8.55
2018-12-13T11:52:42.421Z,7.65
2018-12-13T11:55:28.394Z,8.40
2018-12-13T11:57:57.074Z,7.67
2018-12-13T12:00:25.505Z,6.47
2018-12-13T12:02:53.960Z,8.18
2018-12-13T12:05:22.386Z,8.85
2018-12-13T12:07:50.839Z,8.50
2018-12-13T12:10:19.278Z,7.60
2018-12-13T12:12:47.730Z,8.13
2018-12-13T12:15:16.169Z,7.90
2018-12-13T12:17:44.630Z,8.58
2018-12-13T12:20:13.195Z,7.55
2018-12-13T12:22:41.707Z,7.62
2018-12-13T12:25:10.154Z,7.72
2018-12-13T12:27:38.599Z,7.42
2018-12-13T12:30:07.261Z,8.38
2018-12-13T12:32:35.721Z,8.68
2018-12-13T12:35:04.700Z,7.20
2018-12-13T12:37:33.169Z,9.25
2018-12-13T12:40:01.610Z,7.33
2018-12-13T12:42:30.037Z,6.55
2018-12-13T12:44:58.490Z,7.78
2018-12-13T12:47:26.931Z,6.80
2018-12-13T12:49:55.410Z,7.05
2018-12-13T12:52:23.863Z,8.55
2018-12-13T12:54:52.342Z,6.97
2018-12-13T12:57:20.787Z,7.47
2018-12-13T12:59:49.233Z,8.00
2018-12-13T13:02:17.660Z,8.03
2018-12-13T13:04:46.103Z,8.00
2018-12-13T13:07:14.534Z,6.50
2018-12-13T13:09:42.978Z,7.17
2018-12-13T13:12:11.437Z,8.08
2018-12-13T13:14:39.869Z,5.95
2018-12-13T13:17:08.299Z,7.40
2018-12-13T13:19:36.739Z,7.83
2018-12-13T13:22:05.174Z,8.15
2018-12-13T13:24:33.606Z,8.18
2018-12-13T13:27:02.069Z,7.72
2018-12-13T13:29:30.516Z,8.35
2018-12-13T13:31:58.939Z,8.33
2018-12-13T13:34:27.369Z,7.10
2018-12-13T13:36:55.798Z,6.55
2018-12-13T13:39:24.229Z,6.60
2018-12-13T13:41:52.702Z,8.68
2018-12-13T13:44:21.707Z,7.28
2018-12-13T13:46:50.127Z,7.12
2018-12-13T13:49:18.546Z,7.05
2018-12-13T13:51:47.060Z,7.90
2018-12-13T13:54:15.474Z,6.90
2018-12-13T13:56:43.926Z,7.97
2018-12-13T13:59:12.467Z,7.75
2018-12-13T14:01:40.901Z,6.67
2018-12-13T14:04:09.318Z,7.00
2018-12-13T14:06:37.757Z,7.25
2018-12-13T14:09:07.798Z,7.28
2018-12-13T14:11:36.245Z,8.08
2018-12-13T14:14:04.835Z,7.67
2018-12-13T14:16:33.279Z,8.35
2018-12-13T14:19:01.702Z,7.08
2018-12-13T14:21:30.142Z,8.55
2018-12-13T14:23:58.613Z,7.67
2018-12-13T14:26:27.056Z,8.00
2018-12-13T14:28:55.471Z,8.28
2018-12-13T14:31:23.897Z,7.70
2018-12-13T14:33:52.334Z,7.28
2018-12-13T14:36:20.773Z,7.30
2018-12-13T14:38:49.189Z,8.58
2018-12-13T14:41:17.628Z,7.15
2018-12-13T14:43:46.046Z,8.13
2018-12-13T14:46:14.482Z,7.30
2018-12-13T14:48:42.898Z,6.67
2018-12-13T14:51:11.367Z,7.95
2018-12-13T14:53:39.871Z,8.20
2018-12-13T14:56:08.381Z,6.65
2018-12-13T14:58:36.814Z,8.53
2018-12-13T15:01:05.300Z,7.80
2018-12-13T15:03:33.743Z,7.35
2018-12-13T15:06:02.289Z,7.05
2018-12-13T15:08:30.739Z,7.22
2018-12-13T15:10:59.189Z,7.15
2018-12-13T15:13:27.646Z,6.40
2018-12-13T15:15:56.078Z,8.00
2018-12-13T15:18:24.530Z,6.97
2018-12-13T15:20:52.970Z,7.42
2018-12-13T15:23:21.419Z,7.70
2018-12-13T15:25:49.847Z,6.20
2018-12-13T15:28:18.338Z,7.22
2018-12-13T15:30:46.772Z,6.37
2018-12-13T15:33:15.221Z,6.67
2018-12-13T15:35:43.650Z,7.00
2018-12-13T15:38:12.221Z,7.45
2018-12-13T15:40:40.675Z,7.53
2018-12-13T15:43:09.122Z,7.42
2018-12-13T15:45:37.674Z,8.15
2018-12-13T15:48:06.119Z,9.30
2018-12-13T15:50:34.605Z,7.15
2018-12-13T15:53:03.063Z,8.38
2018-12-13T15:55:31.502Z,7.92
2018-12-13T15:57:59.956Z,9.55
2018-12-13T16:00:28.398Z,7.65
2018-12-13T16:02:56.862Z,8.03
2018-12-13T16:05:25.348Z,8.93
2018-12-13T16:07:53.794Z,8.38
2018-12-13T16:10:22.217Z,6.62
2018-12-13T16:12:50.663Z,8.55
2018-12-13T16:15:19.093Z,7.95
2018-12-13T16:17:47.518Z,8.78
2018-12-13T16:20:15.978Z,6.40
2018-12-13T16:22:44.409Z,7.83
2018-12-13T16:25:12.872Z,8.53
2018-12-13T16:27:41.366Z,7.45
2018-12-13T16:30:09.961Z,7.90
2018-12-13T16:32:38.399Z,8.28
2018-12-13T16:35:06.972Z,7.55
2018-12-13T16:37:35.399Z,7.25
2018-12-13T16:40:10.136Z,7.72
2018-12-13T16:42:34.621Z,7.17
2018-12-13T16:45:03.256Z,7.97
2018-12-13T16:47:31.691Z,7.78
2018-12-13T16:50:00.157Z,5.67
2018-12-13T16:52:28.607Z,7.00
2018-12-13T16:54:57.050Z,6.97
2018-12-13T16:57:25.477Z,8.05
2018-12-13T16:59:53.929Z,6.87
2018-12-13T17:02:22.427Z,8.63
2018-12-13T17:04:50.894Z,7.15
2018-12-13T17:07:19.319Z,7.42
2018-12-13T17:09:47.762Z,7.42
2018-12-13T17:12:16.210Z,8.38
2018-12-13T17:14:44.679Z,7.30
2018-12-13T17:17:13.130Z,7.25
2018-12-13T17:19:41.569Z,7.45
2018-12-13T17:22:10.015Z,8.93
2018-12-13T17:24:38.450Z,7.80
2018-12-13T17:27:06.926Z,7.33
2018-12-13T17:29:35.354Z,7.50
2018-12-13T17:32:03.857Z,7.15
2018-12-13T17:34:32.290Z,8.33
2018-12-13T17:37:00.755Z,7.47
2018-12-13T17:39:29.516Z,7.15
2018-12-13T17:41:57.970Z,8.00
2018-12-13T17:44:26.393Z,8.08
2018-12-13T17:46:54.894Z,7.65
2018-12-13T17:49:23.871Z,8.48
2018-12-13T17:51:52.342Z,8.35
2018-12-13T17:54:20.773Z,8.63
2018-12-13T17:56:49.555Z,7.42
2018-12-13T17:59:19.733Z,7.97
2018-12-13T18:01:48.473Z,8.15
2018-12-13T18:04:16.926Z,6.58
2018-12-13T18:06:45.509Z,8.33
2018-12-13T18:09:14.132Z,6.83
2018-12-13T18:11:42.634Z,7.42
2018-12-13T18:14:11.298Z,8.08
2018-12-13T18:16:43.379Z,7.47
2018-12-13T18:19:10.235Z,7.97
2018-12-13T18:21:38.927Z,7.60
2018-12-13T18:24:07.341Z,8.13
2018-12-13T18:26:35.774Z,7.25
2018-12-13T18:29:04.528Z,7.60
2018-12-13T18:31:32.962Z,6.45
2018-12-13T18:34:01.395Z,7.00
2018-12-13T18:36:29.834Z,6.62
2018-12-13T18:38:58.252Z,7.90
2018-12-13T18:41:26.666Z,6.87
2018-12-13T18:43:55.106Z,6.33
2018-12-13T18:46:23.521Z,7.45
2018-12-13T18:48:51.963Z,7.00
2018-12-13T18:51:20.398Z,8.10
2018-12-13T18:53:48.831Z,7.05
2018-12-13T18:56:17.250Z,8.15
2018-12-13T18:58:45.682Z,7.58
2018-12-13T19:01:14.151Z,7.42
2018-12-13T19:03:42.601Z,7.70
2018-12-13T19:06:11.019Z,7.33
2018-12-13T19:08:39.467Z,8.53
2018-12-13T19:11:07.910Z,7.90
2018-12-13T19:13:36.345Z,7.05
2018-12-13T19:16:04.765Z,8.18
2018-12-13T19:18:33.191Z,7.42
2018-12-13T19:21:01.612Z,8.98
2018-12-13T19:23:30.054Z,7.67
2018-12-13T19:25:58.534Z,7.72
2018-12-13T19:28:26.970Z,8.13
2018-12-13T19:30:55.389Z,8.75
2018-12-13T19:33:23.822Z,7.20
2018-12-13T19:35:52.234Z,7.37
2018-12-13T19:38:20.669Z,9.03
2018-12-13T19:40:49.095Z,8.25
2018-12-13T19:43:17.540Z,8.70
2018-12-13T19:45:45.974Z,7.53
2018-12-13T19:48:14.390Z,9.08
2018-12-13T19:50:42.846Z,8.30
2018-12-13T19:53:11.578Z,8.38
2018-12-13T19:55:40.012Z,8.05
2018-12-13T19:58:08.421Z,6.87
2018-12-13T20:00:36.870Z,8.13
2018-12-13T20:03:05.402Z,9.05
2018-12-13T20:05:33.901Z,9.30
2018-12-13T20:08:02.365Z,7.30
2018-12-13T20:10:30.802Z,7.85
2018-12-13T20:12:59.214Z,9.28
2018-12-13T20:15:27.646Z,8.50
2018-12-13T20:17:56.178Z,8.25
2018-12-13T20:20:24.612Z,7.50
2018-12-13T20:22:53.028Z,8.43
2018-12-13T20:25:21.462Z,7.78
2018-12-13T20:27:49.879Z,8.55
2018-12-13T20:30:18.443Z,7.62
2018-12-13T20:32:46.858Z,7.95
2018-12-13T20:35:15.518Z,7.05
2018-12-13T20:37:43.938Z,6.80
2018-12-13T20:40:12.382Z,7.70
2018-12-13T20:42:40.818Z,8.90
2018-12-13T20:45:09.525Z,7.28
2018-12-13T20:47:37.946Z,7.30
2018-12-13T20:50:07.164Z,8.30
2018-12-13T20:52:35.594Z,8.25
2018-12-13T20:55:04.326Z,8.58
2018-12-13T20:57:32.759Z,9.35
2018-12-13T21:00:01.264Z,7.05
2018-12-13T21:02:29.698Z,8.75
2018-12-13T21:04:58.515Z,8.15
2018-12-13T21:07:34.390Z,7.80
2018-12-13T21:10:04.903Z,7.53
2018-12-13T21:12:33.391Z,7.37
2018-12-13T21:15:01.838Z,7.92
2018-12-13T21:17:30.306Z,7.53
2018-12-13T21:19:58.735Z,7.17
2018-12-13T21:22:27.212Z,7.47
2018-12-13T21:24:55.650Z,7.95
2018-12-13T21:27:24.126Z,8.28
2018-12-13T21:29:52.570Z,8.43
2018-12-13T21:32:21.038Z,7.40
2018-12-13T21:34:49.503Z,7.80
2018-12-13T21:37:17.962Z,7.15
2018-12-13T21:39:46.393Z,7.55
2018-12-13T21:42:14.866Z,8.08
2018-12-13T21:44:43.290Z,7.10
2018-12-13T21:47:11.750Z,7.85
2018-12-13T21:49:40.227Z,7.15
2018-12-13T21:52:08.722Z,7.40
2018-12-13T21:54:37.190Z,8.15
2018-12-13T21:57:05.975Z,7.90
2018-12-13T21:59:34.410Z,7.40
2018-12-13T22:02:02.861Z,6.62
2018-12-13T22:04:31.286Z,7.67
2018-12-13T22:06:59.749Z,8.35
2018-12-13T22:09:28.174Z,6.53
2018-12-13T22:11:56.603Z,7.87
2018-12-13T22:14:25.056Z,7.85
2018-12-13T22:16:53.487Z,7.20
2018-12-13T22:19:22.075Z,7.97
2018-12-13T22:21:50.493Z,6.92
2018-12-13T22:24:18.935Z,6.97
2018-12-13T22:26:47.362Z,6.40
2018-12-13T22:29:15.806Z,7.45
2018-12-13T22:31:44.650Z,7.12
2018-12-13T22:34:13.631Z,7.60
2018-12-13T22:36:42.276Z,7.58
2018-12-13T22:39:10.725Z,7.03
2018-12-13T22:41:39.151Z,6.85
2018-12-13T22:44:07.583Z,5.20
2018-12-13T22:46:36.070Z,6.50
2018-12-13T22:49:04.625Z,7.10
2018-12-13T22:51:33.075Z,6.28
2018-12-13T22:54:01.523Z,6.35
2018-12-13T22:56:30.083Z,6.28
2018-12-13T22:58:58.582Z,6.37
2018-12-13T23:01:27.135Z,6.35
2018-12-13T23:03:55.588Z,6.58
2018-12-13T23:06:24.010Z,5.72
2018-12-13T23:08:52.458Z,7.50
2018-12-13T23:11:20.886Z,6.67
2018-12-13T23:13:49.334Z,6.97
2018-12-13T23:16:17.778Z,7.12
2018-12-13T23:18:46.238Z,7.00
2018-12-13T23:21:14.756Z,7.33
2018-12-13T23:23:43.219Z,7.00
2018-12-13T23:26:11.677Z,8.28
2018-12-13T23:28:40.123Z,7.47
2018-12-13T23:31:08.686Z,5.65
2018-12-13T23:33:37.127Z,6.45
2018-12-13T23:36:05.582Z,6.80
2018-12-13T23:38:34.009Z,5.70
2018-12-13T23:41:02.467Z,5.75
2018-12-13T23:43:30.890Z,7.03
2018-12-13T23:45:59.341Z,7.22
2018-12-13T23:48:27.758Z,7.22
2018-12-13T23:50:56.208Z,6.40
2018-12-13T23:53:25.145Z,6.17
2018-12-13T23:55:53.930Z,5.85
2018-12-13T23:58:22.467Z,8.13
